createdAt,value
2019-02-16T00:02:32.885Z,81.4
2019-02-16T00:07:33.073Z,82.6
2019-02-16T00:12:32.954Z,82.3
2019-02-16T00:17:32.951Z,81.7
2019-02-16T00:22:33.079Z,81.2
2019-02-16T00:27:32.985Z,81.8
2019-02-16T00:32:32.937Z,81.3
2019-02-16T00:37:32.958Z,81.8
2019-02-16T00:42:32.943Z,81.6
2019-02-16T00:47:33.183Z,83
2019-02-16T00:52:33.043Z,82.5
2019-02-16T00:57:33.046Z,82.5
2019-02-16T01:02:32.949Z,81.9
2019-02-16T01:07:32.974Z,83.7
2019-02-16T01:12:32.966Z,83.6
2019-02-16T01:17:32.921Z,83.6
2019-02-16T01:22:33.061Z,83.3
2019-02-16T01:27:33.119Z,83.5
2019-02-16T01:32:32.983Z,83
2019-02-16T01:37:33.132Z,82.4
2019-02-16T01:42:33.232Z,83.3
2019-02-16T01:47:33.003Z,84.1
2019-02-16T01:52:33.156Z,84.2
2019-02-16T01:57:33.101Z,83.5
2019-02-16T02:02:33.157Z,83.4
2019-02-16T02:07:33.184Z,83.6
2019-02-16T02:12:33.106Z,83.2
2019-02-16T02:17:33.091Z,82.8
2019-02-16T02:22:33.190Z,82.5
2019-02-16T02:27:33.003Z,84.5
2019-02-16T02:32:33.153Z,83.1
2019-02-16T02:37:33.054Z,84.1
2019-02-16T02:42:33.016Z,83.1
2019-02-16T02:47:33.017Z,82.2
2019-02-16T02:52:33.192Z,82.3
2019-02-16T02:57:33.246Z,83.6
2019-02-16T03:02:33.151Z,84
2019-02-16T03:07:33.211Z,83.1
2019-02-16T03:12:33.030Z,83.1
2019-02-16T03:17:33.172Z,82.6
2019-02-16T03:22:33.184Z,82.4
2019-02-16T03:27:33.007Z,83.3
2019-02-16T03:32:33.038Z,83.3
2019-02-16T03:37:33.055Z,83.3
2019-02-16T03:42:33.239Z,83.9
2019-02-16T03:47:33.186Z,83.7
2019-02-16T03:52:33.192Z,83.7
2019-02-16T03:57:33.236Z,83.8
2019-02-16T04:02:33.208Z,82.6
2019-02-16T04:07:33.039Z,83
2019-02-16T04:12:33.234Z,83.6
2019-02-16T04:17:33.067Z,83.4
2019-02-16T04:22:33.196Z,82.9
2019-02-16T04:27:33.037Z,84.2
2019-02-16T04:32:33.293Z,83.7
2019-02-16T04:37:33.217Z,85
2019-02-16T04:42:33.170Z,84.2
2019-02-16T04:47:33.056Z,83.6
2019-02-16T04:52:35.485Z,84.8
2019-02-16T04:57:33.106Z,84
2019-02-16T05:02:33.076Z,83.4
2019-02-16T05:07:33.086Z,84
2019-02-16T05:12:33.220Z,83.6
2019-02-16T05:17:33.077Z,83.7
2019-02-16T05:22:33.307Z,83.5
2019-02-16T05:27:33.232Z,83.5
2019-02-16T05:32:33.101Z,82.9
2019-02-16T05:37:33.094Z,84.2
2019-02-16T05:42:33.089Z,84.2
2019-02-16T05:47:33.274Z,84.5
2019-02-16T05:52:33.099Z,84
2019-02-16T05:57:33.359Z,86.5
2019-02-16T06:02:33.141Z,84.7
2019-02-16T06:07:33.122Z,84.8
2019-02-16T06:12:33.122Z,84.5
2019-02-16T06:17:33.126Z,84.2
2019-02-16T06:22:33.143Z,83.9
2019-02-16T06:27:33.141Z,84.4
2019-02-16T06:32:33.127Z,84.7
2019-02-16T06:37:33.116Z,84.4
2019-02-16T06:42:33.140Z,84.5
2019-02-16T06:47:33.136Z,84.8
2019-02-16T06:52:33.146Z,84.4
2019-02-16T06:57:33.116Z,85.2
2019-02-16T07:02:33.190Z,85.4
2019-02-16T07:07:33.131Z,85.6
2019-02-16T07:12:33.158Z,85.3
2019-02-16T07:17:33.172Z,86.4
2019-02-16T07:22:33.185Z,85.9
2019-02-16T07:27:33.170Z,85.8
2019-02-16T07:32:33.169Z,86
2019-02-16T07:37:33.191Z,86.6
2019-02-16T07:42:33.212Z,86.8
2019-02-16T07:47:33.146Z,85.3
2019-02-16T07:52:33.227Z,85.7
2019-02-16T07:57:33.223Z,85.5
2019-02-16T08:02:33.197Z,83.5
2019-02-16T08:07:33.194Z,82.8
2019-02-16T08:12:33.191Z,82.3
2019-02-16T08:17:33.187Z,83
2019-02-16T08:22:33.124Z,81.3
2019-02-16T08:27:33.199Z,81.7
2019-02-16T08:32:33.195Z,81.7
2019-02-16T08:37:33.193Z,81.4
2019-02-16T08:42:33.187Z,81.4
2019-02-16T08:47:33.209Z,79.9
2019-02-16T08:52:33.204Z,79.1
2019-02-16T08:57:33.351Z,79.8
2019-02-16T09:02:33.212Z,77.8
2019-02-16T09:07:33.442Z,78
2019-02-16T09:12:33.237Z,76.6
2019-02-16T09:17:33.385Z,75.9
2019-02-16T09:22:33.502Z,74.5
2019-02-16T09:27:33.214Z,73.6
2019-02-16T09:32:33.225Z,74
2019-02-16T09:37:33.232Z,73
2019-02-16T09:42:33.232Z,72.6
2019-02-16T09:47:33.245Z,71.7
2019-02-16T09:52:33.247Z,69.1
2019-02-16T09:57:33.217Z,68.1
2019-02-16T10:02:33.239Z,68.7
2019-02-16T10:07:33.244Z,67.7
2019-02-16T10:12:33.236Z,66.1
2019-02-16T10:17:33.261Z,66.7
2019-02-16T10:22:33.261Z,64.3
2019-02-16T10:27:33.276Z,65.1
2019-02-16T10:32:33.258Z,62.8
2019-02-16T10:37:33.256Z,62
2019-02-16T10:42:33.776Z,61.5
2019-02-16T10:47:33.281Z,60.9
2019-02-16T10:52:33.269Z,57.4
2019-02-16T10:57:33.276Z,57.2
2019-02-16T11:02:33.278Z,55.6
2019-02-16T11:07:33.282Z,59.1
2019-02-16T11:12:33.307Z,55.2
2019-02-16T11:17:33.258Z,58.4
2019-02-16T11:22:33.264Z,55.4
2019-02-16T11:27:33.284Z,55.2
2019-02-16T11:32:33.256Z,54.7
2019-02-16T11:37:33.304Z,56.7
2019-02-16T11:42:33.397Z,55.6
2019-02-16T11:47:33.298Z,56.7
2019-02-16T11:52:33.293Z,56.5
2019-02-16T11:57:33.303Z,56.8
2019-02-16T12:02:40.164Z,57.6
2019-02-16T12:07:33.299Z,57.1
2019-02-16T12:12:33.311Z,58.6
2019-02-16T12:17:33.309Z,58.3
2019-02-16T12:22:33.313Z,58.4
2019-02-16T12:27:33.461Z,56.4
2019-02-16T12:32:33.339Z,57
2019-02-16T12:37:33.278Z,56.9
2019-02-16T12:42:33.336Z,56.2
2019-02-16T12:47:33.303Z,53.9
2019-02-16T12:52:33.334Z,55.5
2019-02-16T12:57:33.480Z,54.4
2019-02-16T13:02:33.502Z,54.8
2019-02-16T13:07:33.303Z,52.5
2019-02-16T13:12:35.489Z,53.8
2019-02-16T13:17:33.367Z,50.8
2019-02-16T13:22:36.142Z,52.3
2019-02-16T13:27:33.406Z,51.1
2019-02-16T13:32:33.362Z,52.5
2019-02-16T13:37:33.322Z,52.6
2019-02-16T13:42:33.414Z,52.1
2019-02-16T13:47:33.358Z,54
2019-02-16T13:52:33.332Z,53.2
2019-02-16T13:57:33.344Z,53.5
2019-02-16T14:02:33.362Z,53
2019-02-16T14:07:33.369Z,54.1
2019-02-16T14:12:33.396Z,53.3
2019-02-16T14:17:33.400Z,54.7
2019-02-16T14:22:33.378Z,52.4
2019-02-16T14:27:33.467Z,52.1
2019-02-16T14:32:33.397Z,53.7
2019-02-16T14:37:33.397Z,53.4
2019-02-16T14:42:33.379Z,51.6
2019-02-16T14:47:33.413Z,51.4
2019-02-16T14:52:33.405Z,52.9
2019-02-16T14:57:33.442Z,52.6
2019-02-16T15:02:33.400Z,52.2
2019-02-16T15:07:33.549Z,51.4
2019-02-16T15:12:33.528Z,52.7
2019-02-16T15:17:33.403Z,53.9
2019-02-16T15:22:33.671Z,54.7
2019-02-16T15:27:33.587Z,54.4
2019-02-16T15:32:33.643Z,55.4
2019-02-16T15:37:33.412Z,55.5
2019-02-16T15:42:33.412Z,56
2019-02-16T15:47:33.751Z,55.7
2019-02-16T15:52:33.533Z,56
2019-02-16T15:57:33.498Z,56.8
2019-02-16T16:02:33.625Z,56.7
2019-02-16T16:07:33.431Z,58
2019-02-16T16:12:33.580Z,60.3
2019-02-16T16:17:33.640Z,59.3
2019-02-16T16:22:33.674Z,61.2
2019-02-16T16:27:33.608Z,61.1
2019-02-16T16:32:33.452Z,62.4
2019-02-16T16:37:33.717Z,63
2019-02-16T16:42:33.592Z,63.6
2019-02-16T16:47:33.449Z,65
2019-02-16T16:52:33.705Z,66.2
2019-02-16T16:57:33.543Z,66
2019-02-16T17:02:33.462Z,66.4
2019-02-16T17:07:33.464Z,68
2019-02-16T17:12:35.156Z,69.3
2019-02-16T17:17:33.522Z,69.2
2019-02-16T17:22:33.490Z,68.6
2019-02-16T17:27:33.501Z,69
2019-02-16T17:32:33.526Z,70.3
2019-02-16T17:37:33.498Z,70.2
2019-02-16T17:42:33.477Z,71.3
2019-02-16T17:47:33.481Z,70.5
2019-02-16T17:52:33.486Z,73.7
2019-02-16T17:57:33.504Z,72.3
2019-02-16T18:02:33.497Z,72
2019-02-16T18:07:33.529Z,72.5
2019-02-16T18:12:33.436Z,73.3
2019-02-16T18:17:33.606Z,72.6
2019-02-16T18:22:33.617Z,74.4
2019-02-16T18:27:33.718Z,73.1
2019-02-16T18:32:33.731Z,73.3
2019-02-16T18:37:34.112Z,73.8
2019-02-16T18:42:33.534Z,73.9
2019-02-16T18:47:33.551Z,74
2019-02-16T18:52:33.626Z,74.3
2019-02-16T18:57:33.507Z,73.9
2019-02-16T19:02:33.552Z,75.1
2019-02-16T19:07:33.686Z,74.8
2019-02-16T19:12:33.611Z,76.3
2019-02-16T19:17:33.556Z,76.3
2019-02-16T19:22:33.557Z,76
2019-02-16T19:27:36.140Z,75.9
2019-02-16T19:32:33.530Z,74.8
2019-02-16T19:37:33.549Z,76.1
2019-02-16T19:42:33.533Z,75.6
2019-02-16T19:47:33.740Z,75.5
2019-02-16T19:52:33.563Z,76.7
2019-02-16T19:57:33.503Z,76.6
2019-02-16T20:02:33.565Z,76.7
2019-02-16T20:07:33.644Z,76.2
2019-02-16T20:12:33.758Z,78.1
2019-02-16T20:17:33.600Z,77.7
2019-02-16T20:22:33.831Z,77.6
2019-02-16T20:27:37.952Z,80
2019-02-16T20:32:34.182Z,77.9
2019-02-16T20:37:34.090Z,78.1
2019-02-16T20:42:33.641Z,78.7
2019-02-16T20:47:34.189Z,78.6
2019-02-16T20:52:34.233Z,80.1
2019-02-16T20:57:33.852Z,78.8
2019-02-16T21:02:33.619Z,79.8
2019-02-16T21:07:34.229Z,79.3
2019-02-16T21:12:33.617Z,79.3
2019-02-16T21:17:33.602Z,79.4
2019-02-16T21:22:33.628Z,80.9
2019-02-16T21:27:34.046Z,80.2
2019-02-16T21:32:33.635Z,80.3
2019-02-16T21:37:34.311Z,81.9
2019-02-16T21:42:34.604Z,80.9
2019-02-16T21:47:33.639Z,80.3
2019-02-16T21:52:34.281Z,79.7
2019-02-16T21:57:33.756Z,80.5
2019-02-16T22:02:33.624Z,80.1
2019-02-16T22:07:33.625Z,81.5
2019-02-16T22:12:33.632Z,80.2
2019-02-16T22:17:33.631Z,81
2019-02-16T22:22:33.666Z,80.2
2019-02-16T22:27:34.531Z,80.1
2019-02-16T22:32:33.637Z,80.8
2019-02-16T22:37:33.642Z,83.1
2019-02-16T22:42:34.266Z,81.4
2019-02-16T22:47:33.642Z,81.5
2019-02-16T22:52:33.662Z,82.1
2019-02-16T22:57:33.701Z,81.6
2019-02-16T23:02:33.649Z,81.6
2019-02-16T23:07:33.715Z,81.1
2019-02-16T23:12:33.661Z,81.4
2019-02-16T23:17:33.653Z,81.2
2019-02-16T23:22:33.667Z,81.2
2019-02-16T23:27:33.680Z,82
2019-02-16T23:32:33.643Z,82
2019-02-16T23:37:33.692Z,81.4
2019-02-16T23:42:33.658Z,81.4
2019-02-16T23:47:33.662Z,82.3
2019-02-16T23:52:33.686Z,81.3
2019-02-16T23:57:33.932Z,81.1
